createdAt,value
2019-01-28T00:02:18.252Z,97350.06
2019-01-28T00:04:49.380Z,97352.95
2019-01-28T00:07:21.423Z,97344.41
2019-01-28T00:09:54.457Z,97346.17
2019-01-28T00:12:25.424Z,97347.54
2019-01-28T00:14:56.406Z,97338.34
2019-01-28T00:17:27.473Z,97339.53
2019-01-28T00:19:58.318Z,97335.34
2019-01-28T00:22:29.464Z,97344.15
2019-01-28T00:25:00.400Z,97340.48
2019-01-28T00:27:33.487Z,97341.67
2019-01-28T00:30:04.380Z,97333.31
2019-01-28T00:32:36.476Z,97327.02
2019-01-28T00:35:07.749Z,97325.31
2019-01-28T00:37:40.421Z,97323.02
2019-01-28T00:40:13.289Z,97331.59
2019-01-28T00:42:45.580Z,97324.54
2019-01-28T00:45:18.693Z,97321.45
2019-01-28T00:47:50.639Z,97309.63
2019-01-28T00:50:21.468Z,97307.64
2019-01-28T00:52:52.626Z,97293.00
2019-01-28T00:55:23.547Z,97298.08
2019-01-28T00:57:55.122Z,97302.73
2019-01-28T01:00:25.929Z,97306.96
2019-01-28T01:02:56.598Z,97302.69
2019-01-28T01:05:29.558Z,97307.38
2019-01-28T01:07:59.935Z,97299.83
2019-01-28T01:10:31.160Z,97288.50
2019-01-28T01:13:04.023Z,97295.63
2019-01-28T01:15:36.583Z,97297.27
2019-01-28T01:18:07.633Z,97286.33
2019-01-28T01:20:39.718Z,97285.33
2019-01-28T01:23:12.767Z,97295.47
2019-01-28T01:25:44.176Z,97301.35
2019-01-28T01:28:15.577Z,97298.45
2019-01-28T01:30:45.913Z,97302.42
2019-01-28T01:33:16.694Z,97294.50
2019-01-28T01:35:47.538Z,97302.46
2019-01-28T01:38:18.627Z,97283.09
2019-01-28T01:40:49.396Z,97291.52
2019-01-28T01:43:20.401Z,97295.71
2019-01-28T01:45:51.327Z,97321.38
2019-01-28T01:48:22.249Z,97315.81
2019-01-28T01:50:52.801Z,97314.59
2019-01-28T01:53:23.729Z,97302.66
2019-01-28T01:55:56.521Z,97300.39
2019-01-28T01:58:28.882Z,97303.45
2019-01-28T02:01:00.751Z,97317.87
2019-01-28T02:03:33.964Z,97321.80
2019-01-28T02:06:06.498Z,97326.05
2019-01-28T02:08:38.804Z,97329.41
2019-01-28T02:11:09.825Z,97327.31
2019-01-28T02:13:40.891Z,97332.45
2019-01-28T02:16:11.803Z,97331.27
2019-01-28T02:18:42.980Z,97329.09
2019-01-28T02:21:14.107Z,97321.97
2019-01-28T02:23:46.997Z,97319.84
2019-01-28T02:26:18.021Z,97331.13
2019-01-28T02:28:49.105Z,97329.83
2019-01-28T02:31:21.065Z,97332.31
2019-01-28T02:33:51.929Z,97334.16
2019-01-28T02:36:24.057Z,97337.09
2019-01-28T02:38:55.999Z,97331.61
2019-01-28T02:41:27.076Z,97334.09
2019-01-28T02:43:58.072Z,97334.06
2019-01-28T02:46:29.214Z,97329.48
2019-01-28T02:49:00.055Z,97325.29
2019-01-28T02:51:31.009Z,97322.31
2019-01-28T02:54:03.278Z,97318.05
2019-01-28T02:56:36.225Z,97316.80
2019-01-28T02:59:07.095Z,97314.35
2019-01-28T03:01:38.051Z,97316.87
2019-01-28T03:04:09.179Z,97309.59
2019-01-28T03:06:40.145Z,97302.16
2019-01-28T03:09:11.048Z,97303.87
2019-01-28T03:11:42.103Z,97300.02
2019-01-28T03:14:13.136Z,97290.72
2019-01-28T03:16:44.189Z,97285.98
2019-01-28T03:19:14.916Z,97283.09
2019-01-28T03:21:46.347Z,97280.77
2019-01-28T03:24:17.176Z,97290.03
2019-01-28T03:26:48.324Z,97294.72
2019-01-28T03:29:19.207Z,97290.14
2019-01-28T03:31:49.836Z,97298.94
2019-01-28T03:34:21.274Z,97303.52
2019-01-28T03:36:52.432Z,97302.68
2019-01-28T03:39:23.348Z,97299.71
2019-01-28T03:41:56.239Z,97308.94
2019-01-28T03:44:27.377Z,97309.77
2019-01-28T03:46:58.435Z,97315.16
2019-01-28T03:49:29.341Z,97307.22
2019-01-28T03:52:03.060Z,97308.80
2019-01-28T03:54:34.423Z,97315.16
2019-01-28T03:57:05.470Z,97313.52
2019-01-28T03:59:36.404Z,97313.06
2019-01-28T04:02:07.356Z,97305.47
2019-01-28T04:04:38.290Z,97305.93
2019-01-28T04:07:09.478Z,97308.03
2019-01-28T04:09:41.390Z,97306.77
2019-01-28T04:12:14.380Z,97305.96
2019-01-28T04:14:45.425Z,97305.09
2019-01-28T04:17:15.843Z,97308.86
2019-01-28T04:19:46.495Z,97309.73
2019-01-28T04:22:18.467Z,97308.86
2019-01-28T04:24:51.527Z,97305.09
2019-01-28T04:27:22.487Z,97303.00
2019-01-28T04:29:53.867Z,97306.31
2019-01-28T04:32:24.479Z,97303.37
2019-01-28T04:34:55.611Z,97304.18
2019-01-28T04:37:26.005Z,97308.38
2019-01-28T04:39:58.524Z,97312.64
2019-01-28T04:42:28.924Z,97314.28
2019-01-28T04:44:59.626Z,97316.87
2019-01-28T04:47:30.559Z,97318.09
2019-01-28T04:50:01.495Z,97326.86
2019-01-28T04:52:32.515Z,97334.95
2019-01-28T04:55:03.448Z,97339.30
2019-01-28T04:57:34.393Z,97346.92
2019-01-28T05:00:08.160Z,97345.48
2019-01-28T05:02:39.730Z,97351.78
2019-01-28T05:05:10.767Z,97352.30
2019-01-28T05:07:43.766Z,97349.82
2019-01-28T05:10:15.490Z,97350.63
2019-01-28T05:12:48.830Z,97353.14
2019-01-28T05:15:22.001Z,97359.44
2019-01-28T05:17:53.801Z,97362.38
2019-01-28T05:20:25.202Z,97364.33
2019-01-28T05:22:55.769Z,97361.77
2019-01-28T05:25:27.721Z,97359.52
2019-01-28T05:27:58.823Z,97350.44
2019-01-28T05:30:31.846Z,97348.33
2019-01-28T05:33:02.687Z,97343.84
2019-01-28T05:35:33.937Z,97346.77
2019-01-28T05:38:04.866Z,97346.77
2019-01-28T05:40:35.751Z,97360.36
2019-01-28T05:43:06.785Z,97368.26
2019-01-28T05:45:37.724Z,97371.23
2019-01-28T05:48:08.741Z,97369.59
2019-01-28T05:50:39.635Z,97369.98
2019-01-28T05:53:10.603Z,97371.12
2019-01-28T05:55:40.966Z,97368.22
2019-01-28T05:58:11.874Z,97367.00
2019-01-28T06:00:44.839Z,97369.82
2019-01-28T06:03:15.411Z,97360.78
2019-01-28T06:05:45.848Z,97347.27
2019-01-28T06:08:16.444Z,97350.09
2019-01-28T06:10:46.874Z,97341.33
2019-01-28T06:13:18.465Z,97345.55
2019-01-28T06:15:50.080Z,97349.71
2019-01-28T06:18:20.543Z,97353.07
2019-01-28T06:20:50.977Z,97347.23
2019-01-28T06:23:22.028Z,97358.59
2019-01-28T06:25:53.219Z,97355.94
2019-01-28T06:28:24.247Z,97356.31
2019-01-28T06:30:55.132Z,97359.56
2019-01-28T06:33:26.151Z,97366.31
2019-01-28T06:35:57.113Z,97372.61
2019-01-28T06:38:28.051Z,97384.01
2019-01-28T06:40:58.436Z,97372.53
2019-01-28T06:43:30.089Z,97380.84
2019-01-28T06:46:00.909Z,97376.88
2019-01-28T06:48:31.947Z,97390.73
2019-01-28T06:51:02.968Z,97391.61
2019-01-28T06:53:33.975Z,97391.66
2019-01-28T06:56:04.872Z,97407.80
2019-01-28T06:58:35.781Z,97411.73
2019-01-28T07:01:06.187Z,97396.84
2019-01-28T07:03:37.222Z,97387.82
2019-01-28T07:06:08.188Z,97398.84
2019-01-28T07:08:39.286Z,97391.78
2019-01-28T07:11:10.020Z,97391.20
2019-01-28T07:13:41.098Z,97387.43
2019-01-28T07:16:11.927Z,97397.90
2019-01-28T07:18:42.879Z,97400.36
2019-01-28T07:21:13.217Z,97391.42
2019-01-28T07:23:45.807Z,97396.52
2019-01-28T07:26:16.148Z,97392.59
2019-01-28T07:28:46.627Z,97434.70
2019-01-28T07:31:17.503Z,97386.32
2019-01-28T07:33:48.388Z,97401.00
2019-01-28T07:36:19.130Z,97402.73
2019-01-28T07:38:50.178Z,97407.03
2019-01-28T07:41:20.899Z,97402.47
2019-01-28T07:43:51.410Z,97396.63
2019-01-28T07:46:22.645Z,97404.56
2019-01-28T07:48:53.620Z,97412.55
2019-01-28T07:51:24.394Z,97404.20
2019-01-28T07:53:55.414Z,97409.19
2019-01-28T07:56:26.195Z,97404.47
2019-01-28T07:58:57.209Z,97451.94
2019-01-28T08:01:28.120Z,97419.50
2019-01-28T08:03:58.505Z,97408.16
2019-01-28T08:06:30.044Z,97418.30
2019-01-28T08:09:00.497Z,97458.20
2019-01-28T08:11:31.393Z,97435.91
2019-01-28T08:14:04.202Z,97438.48
2019-01-28T08:16:36.534Z,97434.92
2019-01-28T08:19:07.417Z,97430.77
2019-01-28T08:21:38.543Z,97448.34
2019-01-28T08:24:09.530Z,97440.02
2019-01-28T08:26:40.605Z,97432.81
2019-01-28T08:29:12.603Z,97433.28
2019-01-28T08:31:44.619Z,97440.75
2019-01-28T08:34:15.474Z,97445.81
2019-01-28T08:36:46.705Z,97446.80
2019-01-28T08:39:17.081Z,97445.44
2019-01-28T08:41:47.511Z,97471.47
2019-01-28T08:44:18.660Z,97466.47
2019-01-28T08:46:50.967Z,97462.94
2019-01-28T08:49:21.697Z,97474.69
2019-01-28T08:51:52.069Z,97463.42
2019-01-28T08:54:23.779Z,97474.03
2019-01-28T08:56:56.794Z,97473.05
2019-01-28T08:59:29.755Z,97485.16
2019-01-28T09:02:04.108Z,97497.39
2019-01-28T09:04:35.670Z,97489.45
2019-01-28T09:07:06.766Z,97507.08
2019-01-28T09:09:37.347Z,97499.50
2019-01-28T09:12:07.930Z,97509.50
2019-01-28T09:14:39.763Z,97509.50
2019-01-28T09:17:10.496Z,97536.43
2019-01-28T09:19:41.565Z,97523.07
2019-01-28T09:22:11.920Z,97556.64
2019-01-28T09:24:43.431Z,97551.25
2019-01-28T09:27:13.847Z,97551.16
2019-01-28T09:29:45.312Z,97553.27
2019-01-28T09:32:15.849Z,97560.42
2019-01-28T09:34:46.892Z,97564.11
2019-01-28T09:37:18.025Z,97552.70
2019-01-28T09:39:48.949Z,97571.41
2019-01-28T09:42:19.894Z,97583.89
2019-01-28T09:44:50.783Z,97558.49
2019-01-28T09:47:21.301Z,97563.31
2019-01-28T09:49:52.794Z,97587.62
2019-01-28T09:52:23.547Z,97557.94
2019-01-28T09:54:54.253Z,97550.72
2019-01-28T09:57:25.158Z,97547.19
2019-01-28T09:59:56.123Z,97523.22
2019-01-28T10:02:27.182Z,97523.22
2019-01-28T10:04:58.204Z,97542.89
2019-01-28T10:07:29.009Z,97548.13
2019-01-28T10:09:59.943Z,97531.69
2019-01-28T10:12:30.854Z,97531.69
2019-01-28T10:15:01.856Z,97524.28
2019-01-28T10:17:32.588Z,97524.28
2019-01-28T10:20:03.077Z,97524.95
2019-01-28T10:22:34.115Z,97508.08
2019-01-28T10:25:05.520Z,97508.02
2019-01-28T10:27:36.127Z,97510.63
2019-01-28T10:30:08.257Z,97494.44
2019-01-28T10:32:42.785Z,97493.98
2019-01-28T10:35:16.253Z,97508.66
2019-01-28T10:37:49.168Z,97508.66
2019-01-28T10:40:24.982Z,97503.88
2019-01-28T10:42:57.108Z,97508.94
2019-01-28T10:45:28.418Z,97505.70
2019-01-28T10:48:00.950Z,97503.63
2019-01-28T10:50:32.583Z,97506.18
2019-01-28T10:53:03.164Z,97507.09
2019-01-28T10:55:35.272Z,97515.42
2019-01-28T10:58:06.587Z,97502.13
2019-01-28T11:00:41.842Z,97507.67
2019-01-28T11:03:14.638Z,97510.97
2019-01-28T11:05:47.328Z,97512.36
2019-01-28T11:08:19.386Z,97507.39
2019-01-28T11:10:50.411Z,97511.60
2019-01-28T11:13:22.262Z,97511.02
2019-01-28T11:15:54.626Z,97510.06
2019-01-28T11:18:27.405Z,97510.41
2019-01-28T11:20:59.274Z,97511.63
2019-01-28T11:23:32.162Z,97517.23
2019-01-28T11:26:04.552Z,97513.94
2019-01-28T11:28:35.504Z,97508.16
2019-01-28T11:31:12.948Z,97512.98
2019-01-28T11:33:43.410Z,97518.45
2019-01-28T11:36:14.495Z,97521.33
2019-01-28T11:38:45.539Z,97523.51
2019-01-28T11:41:16.317Z,97516.61
2019-01-28T11:43:47.629Z,97519.55
2019-01-28T11:46:19.608Z,97518.36
2019-01-28T11:48:50.290Z,97516.77
2019-01-28T11:51:22.389Z,97521.94
2019-01-28T11:53:53.393Z,97534.53
2019-01-28T11:56:24.657Z,97523.67
2019-01-28T11:58:55.599Z,97523.13
2019-01-28T12:01:33.078Z,97516.46
2019-01-28T12:04:05.889Z,97525.33
2019-01-28T12:06:37.547Z,97523.27
2019-01-28T12:09:10.068Z,97528.43
2019-01-28T12:11:42.576Z,97528.56
2019-01-28T12:14:13.499Z,97531.39
2019-01-28T12:16:46.584Z,97536.70
2019-01-28T12:19:18.280Z,97543.02
2019-01-28T12:21:49.444Z,97537.05
2019-01-28T12:24:19.784Z,97539.19
2019-01-28T12:26:50.663Z,97553.03
2019-01-28T12:29:22.098Z,97556.52
2019-01-28T12:31:52.716Z,97553.16
2019-01-28T12:34:24.905Z,97562.01
2019-01-28T12:36:57.618Z,97541.34
2019-01-28T12:39:29.721Z,97545.13
2019-01-28T12:42:00.171Z,97565.62
2019-01-28T12:44:30.716Z,97552.19
2019-01-28T12:47:01.806Z,97550.42
2019-01-28T12:49:34.355Z,97553.53
2019-01-28T12:52:04.749Z,97542.44
2019-01-28T12:54:39.326Z,97542.51
2019-01-28T12:57:11.788Z,97538.24
2019-01-28T12:59:42.734Z,97540.62
2019-01-28T13:02:13.863Z,97531.20
2019-01-28T13:04:44.827Z,97530.34
2019-01-28T13:07:15.816Z,97521.12
2019-01-28T13:09:46.985Z,97535.04
2019-01-28T13:12:19.102Z,97535.00
2019-01-28T13:14:51.852Z,97534.52
2019-01-28T13:17:24.935Z,97534.22
2019-01-28T13:19:55.905Z,97535.94
2019-01-28T13:22:27.418Z,97535.39
2019-01-28T13:24:58.013Z,97540.73
2019-01-28T13:27:29.459Z,97541.08
2019-01-28T13:29:59.909Z,97562.36
2019-01-28T13:32:30.981Z,97559.07
2019-01-28T13:35:02.044Z,97546.91
2019-01-28T13:37:34.227Z,97563.88
2019-01-28T13:40:06.793Z,97563.42
2019-01-28T13:42:39.070Z,97554.27
2019-01-28T13:45:13.136Z,97554.16
2019-01-28T13:47:46.027Z,97562.93
2019-01-28T13:50:19.009Z,97558.98
2019-01-28T13:52:51.220Z,97561.73
2019-01-28T13:55:22.065Z,97560.08
2019-01-28T13:57:52.539Z,97561.42
2019-01-28T14:00:28.659Z,97566.36
2019-01-28T14:03:01.181Z,97569.14
2019-01-28T14:05:32.200Z,97577.19
2019-01-28T14:08:03.063Z,97607.52
2019-01-28T14:10:34.111Z,97586.44
2019-01-28T14:13:05.513Z,97582.62
2019-01-28T14:15:38.214Z,97592.04
2019-01-28T14:18:11.839Z,97587.05
2019-01-28T14:20:44.122Z,97588.31
2019-01-28T14:23:15.050Z,97593.80
2019-01-28T14:25:46.257Z,97585.23
2019-01-28T14:28:16.655Z,97594.38
2019-01-28T14:30:49.252Z,97593.83
2019-01-28T14:33:22.088Z,97595.55
2019-01-28T14:35:53.109Z,97596.75
2019-01-28T14:38:25.069Z,97607.12
2019-01-28T14:40:58.099Z,97604.52
2019-01-28T14:43:29.029Z,97608.03
2019-01-28T14:46:01.609Z,97626.98
2019-01-28T14:48:34.181Z,97608.72
2019-01-28T14:51:05.582Z,97609.22
2019-01-28T14:53:36.363Z,97618.52
2019-01-28T14:56:07.318Z,97620.50
2019-01-28T14:58:38.360Z,97622.23
2019-01-28T15:01:09.267Z,97629.78
2019-01-28T15:03:40.338Z,97625.91
2019-01-28T15:06:11.367Z,97633.72
2019-01-28T15:08:43.258Z,97629.73
2019-01-28T15:11:15.358Z,97620.70
2019-01-28T15:13:47.973Z,97636.47
2019-01-28T15:16:19.337Z,97649.67
2019-01-28T15:18:51.461Z,97635.09
2019-01-28T15:21:24.124Z,97635.02
2019-01-28T15:23:56.462Z,97634.01
2019-01-28T15:26:27.353Z,97638.95
2019-01-28T15:28:58.340Z,97636.75
2019-01-28T15:31:29.563Z,97642.16
2019-01-28T15:34:00.437Z,97650.96
2019-01-28T15:36:31.323Z,97639.48
2019-01-28T15:39:02.543Z,97634.53
2019-01-28T15:41:33.671Z,97647.25
2019-01-28T15:44:05.568Z,97647.25
2019-01-28T15:46:35.965Z,97649.77
2019-01-28T15:49:08.804Z,97651.95
2019-01-28T15:51:39.589Z,97644.11
2019-01-28T15:54:10.764Z,97651.93
2019-01-28T15:56:41.710Z,97647.78
2019-01-28T15:59:12.630Z,97650.59
2019-01-28T16:01:43.580Z,97653.18
2019-01-28T16:04:14.616Z,97653.18
2019-01-28T16:06:45.166Z,97660.91
2019-01-28T16:09:16.023Z,97660.91
2019-01-28T16:11:47.371Z,97659.33
2019-01-28T16:14:17.971Z,97662.81
2019-01-28T16:16:48.592Z,97662.23
2019-01-28T16:19:19.683Z,97667.30
2019-01-28T16:21:50.658Z,97666.27
2019-01-28T16:24:21.818Z,97674.78
2019-01-28T16:26:53.531Z,97678.19
2019-01-28T16:29:23.916Z,97679.47
2019-01-28T16:31:54.540Z,97678.26
2019-01-28T16:34:25.580Z,97676.41
2019-01-28T16:36:56.621Z,97674.70
2019-01-28T16:39:27.315Z,97674.70
2019-01-28T16:41:57.779Z,97677.73
2019-01-28T16:44:29.073Z,97693.00
2019-01-28T16:46:59.836Z,97680.35
2019-01-28T16:49:32.213Z,97687.00
2019-01-28T16:52:04.684Z,97688.96
2019-01-28T16:54:35.935Z,97698.56
2019-01-28T16:57:07.099Z,97683.53
2019-01-28T16:59:38.063Z,97685.91
2019-01-28T17:02:09.048Z,97685.91
2019-01-28T17:04:41.969Z,97694.02
2019-01-28T17:07:14.519Z,97696.77
2019-01-28T17:09:47.055Z,97696.86
2019-01-28T17:12:19.933Z,97697.80
2019-01-28T17:14:53.414Z,97697.80
2019-01-28T17:17:26.094Z,97694.27
2019-01-28T17:19:56.969Z,97702.72
2019-01-28T17:22:28.750Z,97705.98
2019-01-28T17:25:04.279Z,97708.35
2019-01-28T17:27:34.944Z,97704.20
2019-01-28T17:30:10.770Z,97704.20
2019-01-28T17:32:43.952Z,97704.67
2019-01-28T17:35:16.166Z,97696.45
2019-01-28T17:37:48.056Z,97696.45
2019-01-28T17:40:20.050Z,97704.45
2019-01-28T17:42:50.576Z,97698.87
2019-01-28T17:45:21.960Z,97713.45
2019-01-28T17:47:52.620Z,97700.98
2019-01-28T17:50:24.571Z,97720.00
2019-01-28T17:52:57.090Z,97720.00
2019-01-28T17:55:28.001Z,97716.58
2019-01-28T17:57:59.716Z,97723.67
2019-01-28T18:00:33.740Z,97740.72
2019-01-28T18:03:04.197Z,97740.72
2019-01-28T18:05:35.156Z,97729.59
2019-01-28T18:08:05.950Z,97720.55
2019-01-28T18:10:37.223Z,97738.61
2019-01-28T18:13:08.236Z,97740.48
2019-01-28T18:15:40.265Z,97740.48
2019-01-28T18:18:12.154Z,97738.09
2019-01-28T18:20:51.683Z,97738.09
2019-01-28T18:23:21.182Z,97740.25
2019-01-28T18:25:52.056Z,97741.80
2019-01-28T18:28:24.677Z,97742.83
2019-01-28T18:30:57.333Z,97746.90
2019-01-28T18:33:30.294Z,97746.90
2019-01-28T18:36:05.609Z,97742.78
2019-01-28T18:38:35.236Z,97737.35
2019-01-28T18:41:06.629Z,97748.53
2019-01-28T18:43:37.280Z,97746.06
2019-01-28T18:46:08.454Z,97740.91
2019-01-28T18:48:39.239Z,97751.95
2019-01-28T18:51:10.342Z,97746.83
2019-01-28T18:53:41.244Z,97746.83
2019-01-28T18:56:12.460Z,97758.67
2019-01-28T18:58:43.334Z,97757.14
2019-01-28T19:01:14.329Z,97757.14
2019-01-28T19:03:44.783Z,97767.13
2019-01-28T19:06:24.151Z,97767.13
2019-01-28T19:09:24.174Z,97774.20
2019-01-28T19:12:03.166Z,97772.56
2019-01-28T19:14:59.098Z,97774.36
2019-01-28T19:17:51.292Z,97773.44
2019-01-28T19:20:47.348Z,97774.82
2019-01-28T19:23:19.457Z,97784.81
2019-01-28T19:25:50.357Z,97784.81
2019-01-28T19:28:22.707Z,97778.91
2019-01-28T19:30:55.527Z,97786.91
2019-01-28T19:33:27.080Z,97776.34
2019-01-28T19:35:57.462Z,97787.62
2019-01-28T19:38:28.596Z,97780.67
2019-01-28T19:40:59.527Z,97795.70
2019-01-28T19:43:30.605Z,97795.21
2019-01-28T19:46:03.778Z,97790.35
2019-01-28T19:48:35.777Z,97790.35
2019-01-28T19:51:15.621Z,97787.98
2019-01-28T19:53:44.262Z,97787.98
2019-01-28T19:56:16.325Z,97784.38
2019-01-28T19:58:47.666Z,97784.38
2019-01-28T20:01:20.007Z,97786.45
2019-01-28T20:03:52.666Z,97800.16
2019-01-28T20:06:25.733Z,97800.16
2019-01-28T20:08:57.189Z,97797.39
2019-01-28T20:11:28.796Z,97797.39
2019-01-28T20:13:59.841Z,97803.88
2019-01-28T20:16:31.975Z,97808.60
2019-01-28T20:19:03.688Z,97809.94
2019-01-28T20:21:35.854Z,97809.55
2019-01-28T20:24:06.801Z,97816.03
2019-01-28T20:26:37.824Z,97813.23
2019-01-28T20:29:08.811Z,97812.09
2019-01-28T20:31:39.711Z,97815.66
2019-01-28T20:34:10.680Z,97813.42
2019-01-28T20:36:41.532Z,97816.18
2019-01-28T20:39:12.621Z,97816.18
2019-01-28T20:41:43.440Z,97823.03
2019-01-28T20:44:14.558Z,97824.72
2019-01-28T20:46:45.883Z,97829.70
2019-01-28T20:49:16.446Z,97832.32
2019-01-28T20:51:47.041Z,97826.94
2019-01-28T20:54:18.395Z,97828.47
2019-01-28T20:56:48.886Z,97836.91
2019-01-28T20:59:19.992Z,97843.72
2019-01-28T21:01:50.805Z,97832.48
2019-01-28T21:04:22.581Z,97835.11
2019-01-28T21:06:53.118Z,97826.84
2019-01-28T21:09:24.448Z,97839.72
2019-01-28T21:11:56.499Z,97829.43
2019-01-28T21:14:28.869Z,97832.41
2019-01-28T21:17:00.093Z,97832.56
2019-01-28T21:19:31.110Z,97832.56
2019-01-28T21:22:01.992Z,97851.44
2019-01-28T21:24:32.999Z,97826.25
2019-01-28T21:27:04.146Z,97831.42
2019-01-28T21:29:35.039Z,97831.42
2019-01-28T21:32:06.375Z,97835.17
2019-01-28T21:34:37.095Z,97835.17
2019-01-28T21:37:25.523Z,97830.08
2019-01-28T21:39:57.097Z,97855.77
2019-01-28T21:42:29.599Z,97855.77
2019-01-28T21:45:02.052Z,97852.59
2019-01-28T21:47:34.578Z,97852.59
2019-01-28T21:50:07.757Z,97868.70
2019-01-28T21:52:40.870Z,97861.28
2019-01-28T21:55:12.572Z,97883.06
2019-01-28T21:57:44.579Z,97883.06
2019-01-28T22:00:16.800Z,97893.70
2019-01-28T22:02:47.262Z,97878.97
2019-01-28T22:05:20.249Z,97885.36
2019-01-28T22:07:52.526Z,97885.36
2019-01-28T22:10:23.361Z,97886.55
2019-01-28T22:12:54.210Z,97880.80
2019-01-28T22:15:25.112Z,97898.48
2019-01-28T22:17:56.337Z,97898.48
2019-01-28T22:20:27.247Z,97889.14
2019-01-28T22:22:58.292Z,97889.14
2019-01-28T22:25:29.208Z,97890.94
2019-01-28T22:28:01.342Z,97887.14
2019-01-28T22:30:34.242Z,97887.14
2019-01-28T22:33:05.754Z,97909.56
2019-01-28T22:35:38.348Z,97910.89
2019-01-28T22:38:09.287Z,97910.89
2019-01-28T22:40:40.247Z,97928.17
2019-01-28T22:43:11.356Z,97916.00
2019-01-28T22:45:42.412Z,97915.16
2019-01-28T22:48:13.792Z,97927.59
2019-01-28T22:50:44.291Z,97920.50
2019-01-28T22:53:15.411Z,97920.56
2019-01-28T22:55:46.424Z,97926.91
2019-01-28T22:58:16.851Z,97910.86
2019-01-28T23:01:01.596Z,97920.15
2019-01-28T23:03:34.446Z,97920.15
2019-01-28T23:06:05.585Z,97934.36
2019-01-28T23:08:37.446Z,97917.53
2019-01-28T23:11:10.619Z,97940.26
2019-01-28T23:13:41.356Z,97930.28
2019-01-28T23:16:12.512Z,97926.05
2019-01-28T23:18:43.362Z,97956.02
2019-01-28T23:21:14.493Z,97933.55
2019-01-28T23:23:45.344Z,97920.56
2019-01-28T23:26:16.183Z,97940.61
2019-01-28T23:28:46.552Z,97934.23
2019-01-28T23:31:17.064Z,97932.97
2019-01-28T23:33:49.962Z,97955.77
2019-01-28T23:36:20.449Z,97921.53
2019-01-28T23:38:51.174Z,97934.55
2019-01-28T23:41:23.030Z,97915.08
2019-01-28T23:43:53.699Z,97915.08
2019-01-28T23:46:24.933Z,97918.44
2019-01-28T23:48:55.321Z,97926.41
2019-01-28T23:51:25.761Z,97911.67
2019-01-28T23:53:56.623Z,97908.27
2019-01-28T23:56:27.906Z,97908.48
2019-01-28T23:58:58.721Z,97911.77
